Time;durP1;ratioP1;P1;durP2;ratioP2;P2;SDS_P1;SDS_P2;PMS_P1;PMS_P2;Temp;Humidity;BMP_temperature;BMP_pressure;BME280_temperature;BME280_humidity;BME280_pressure;Samples;Min_cycle;Max_cycle;Signal;HPM_P1;HPM_P2
2022/07/29 00:00:05;;;;;;;1.13;0.90;;;23.30;45.90;;;;;;5089378;28;20032;-83
2022/07/29 00:02:31;;;;;;;1.10;0.82;;;23.30;46.00;;;;;;5087823;28;20040;-83
2022/07/29 00:04:58;;;;;;;0.82;0.82;;;23.30;46.00;;;;;;5069393;28;20020;-83
2022/07/29 00:07:24;;;;;;;0.70;0.60;;;23.20;46.00;;;;;;5090446;28;20084;-83
2022/07/29 00:09:50;;;;;;;0.80;0.80;;;23.20;46.00;;;;;;5071908;28;20078;-82
2022/07/29 00:12:16;;;;;;;1.15;0.80;;;23.20;46.10;;;;;;5060258;28;20047;-84
2022/07/29 00:14:42;;;;;;;1.70;0.90;;;23.20;46.20;;;;;;5072949;28;20492;-82
2022/07/29 00:17:07;;;;;;;0.88;0.80;;;23.20;46.20;;;;;;5071191;28;20020;-82
2022/07/29 00:19:34;;;;;;;0.80;0.80;;;23.10;46.10;;;;;;5046830;28;20041;-82
2022/07/29 00:22:00;;;;;;;1.48;0.90;;;23.10;46.20;;;;;;5057844;28;20040;-82
2022/07/29 00:24:26;;;;;;;0.73;0.73;;;23.10;46.20;;;;;;5088613;28;20028;-84
2022/07/29 00:26:51;;;;;;;1.15;0.80;;;23.10;46.30;;;;;;5070996;28;20036;-83
2022/07/29 00:29:17;;;;;;;1.50;0.70;;;23.10;46.30;;;;;;5056084;28;20044;-83
2022/07/29 00:31:43;;;;;;;1.02;0.75;;;23.10;46.30;;;;;;5056358;28;20041;-83
2022/07/29 00:35:43;;;;;;;1.25;0.70;;;23.00;46.30;;;;;;5070769;28;20028;-83
2022/07/29 00:36:55;;;;;;;0.75;0.75;;;22.90;46.30;;;;;;5086634;28;20708;-84
2022/07/29 00:39:21;;;;;;;0.80;0.80;;;23.00;46.40;;;;;;5052176;28;20419;-82
2022/07/29 00:41:47;;;;;;;0.93;0.82;;;22.90;46.50;;;;;;5088574;28;20040;-84
2022/07/29 00:44:13;;;;;;;0.68;0.60;;;22.90;46.50;;;;;;5087012;28;20473;-83
2022/07/29 00:46:39;;;;;;;3.92;0.93;;;22.90;46.50;;;;;;5079745;28;20036;-82
2022/07/29 00:49:07;;;;;;;1.02;0.90;;;22.90;46.60;;;;;;5090451;28;20399;-83
2022/07/29 00:51:35;;;;;;;1.92;1.00;;;22.90;46.60;;;;;;5089001;28;20039;-83
2022/07/29 00:54:01;;;;;;;0.80;0.80;;;22.90;46.60;;;;;;5068380;28;20032;-84
2022/07/29 00:56:29;;;;;;;0.77;0.77;;;22.80;46.70;;;;;;5086786;28;20109;-82
2022/07/29 00:58:56;;;;;;;0.90;0.80;;;22.80;46.70;;;;;;5057895;28;20543;-83
2022/07/29 01:01:22;;;;;;;0.70;0.70;;;22.80;46.70;;;;;;5069531;28;20041;-83
2022/07/29 01:03:48;;;;;;;0.88;0.77;;;22.80;46.70;;;;;;5071326;28;20035;-83
2022/07/29 01:06:16;;;;;;;1.00;0.90;;;22.80;46.80;;;;;;5047584;28;20045;-83
2022/07/29 01:08:43;;;;;;;1.17;0.90;;;22.70;46.80;;;;;;5049856;28;20025;-83
2022/07/29 01:11:09;;;;;;;0.68;0.68;;;22.70;46.80;;;;;;5030835;28;20536;-86
2022/07/29 01:13:36;;;;;;;1.75;0.80;;;22.70;46.80;;;;;;5033423;28;20028;-84
2022/07/29 01:16:30;;;;;;;1.02;0.90;;;22.60;46.90;;;;;;5052863;28;20051;-83
2022/07/29 01:19:06;;;;;;;0.93;0.80;;;22.60;47.00;;;;;;5036899;28;20045;-84
2022/07/29 01:21:53;;;;;;;1.13;0.90;;;22.60;46.90;;;;;;5028352;28;20034;-82
2022/07/29 01:24:27;;;;;;;1.10;0.90;;;22.60;47.10;;;;;;5017657;28;20457;-83
2022/07/29 01:26:59;;;;;;;;;;;22.50;47.00;;;;;;5041370;28;20493;-83
2022/07/29 01:29:43;;;;;;;0.70;0.70;;;22.50;46.90;;;;;;5044927;28;19909;-82
2022/07/29 01:32:13;;;;;;;1.10;0.80;;;22.50;47.10;;;;;;5030224;28;20113;-82
2022/07/29 01:34:52;;;;;;;1.40;1.00;;;22.50;47.10;;;;;;5026585;28;20550;-82
2022/07/29 01:37:31;;;;;;;0.90;0.70;;;22.40;47.20;;;;;;5048727;28;20029;-83
2022/07/29 01:40:01;;;;;;;1.13;0.90;;;22.40;47.20;;;;;;5047434;28;20413;-82
2022/07/29 01:42:38;;;;;;;0.88;0.80;;;22.40;47.30;;;;;;5045853;28;20383;-83
2022/07/29 01:45:25;;;;;;;1.17;0.80;;;22.40;47.30;;;;;;5051564;28;20044;-83
2022/07/29 01:48:02;;;;;;;0.80;0.80;;;22.40;47.40;;;;;;5040954;28;20091;-83
2022/07/29 01:50:45;;;;;;;1.70;1.00;;;22.40;47.40;;;;;;5043685;28;20531;-83
2022/07/29 01:53:14;;;;;;;0.80;0.80;;;22.30;47.40;;;;;;5050515;28;20048;-83
2022/07/29 01:55:44;;;;;;;1.00;0.90;;;22.30;47.40;;;;;;5032884;28;20119;-83
2022/07/29 01:58:12;;;;;;;0.88;0.88;;;22.30;47.40;;;;;;5049654;28;20454;-83
2022/07/29 02:00:38;;;;;;;0.70;0.70;;;22.30;47.50;;;;;;5047349;28;20033;-82
2022/07/29 02:03:10;;;;;;;0.93;0.90;;;22.30;47.50;;;;;;5031043;28;20401;-83
2022/07/29 02:05:39;;;;;;;0.88;0.88;;;22.30;47.50;;;;;;5023127;28;20021;-82
2022/07/29 02:08:06;;;;;;;1.08;0.98;;;22.30;47.50;;;;;;5068939;28;20070;-82
2022/07/29 02:10:34;;;;;;;2.10;1.10;;;22.20;47.50;;;;;;5073968;28;20085;-83
2022/07/29 02:13:01;;;;;;;1.10;0.90;;;22.20;47.50;;;;;;5055639;28;20437;-84
2022/07/29 02:15:30;;;;;;;1.08;0.98;;;22.20;47.50;;;;;;5054124;28;20028;-82
2022/07/29 02:18:07;;;;;;;1.02;0.95;;;22.20;47.60;;;;;;5052022;28;20024;-82
2022/07/29 02:20:33;;;;;;;1.15;1.00;;;22.20;47.60;;;;;;5084319;28;20024;-83
2022/07/29 02:23:01;;;;;;;1.70;1.25;;;22.20;47.60;;;;;;5073613;28;20031;-85
2022/07/29 02:25:28;;;;;;;0.80;0.80;;;22.10;47.60;;;;;;5071935;28;20077;-83
2022/07/29 02:27:55;;;;;;;2.45;1.05;;;22.10;47.70;;;;;;5071381;28;20488;-83
2022/07/29 02:30:23;;;;;;;1.08;0.95;;;22.10;47.70;;;;;;5069963;28;20120;-83
2022/07/29 02:32:50;;;;;;;1.27;0.80;;;22.10;47.70;;;;;;5088308;28;20525;-83
2022/07/29 02:35:18;;;;;;;1.00;0.90;;;22.10;47.80;;;;;;5052203;28;20555;-85
2022/07/29 02:38:49;;;;;;;1.35;0.88;;;22.10;47.80;;;;;;5090108;28;20030;-84
2022/07/29 02:40:32;;;;;;;1.23;1.10;;;22.10;47.90;;;;;;5052314;28;20576;-83
2022/07/29 02:42:59;;;;;;;1.38;1.00;;;22.10;47.90;;;;;;5056537;28;20097;-83
2022/07/29 02:45:25;;;;;;;1.35;1.00;;;22.00;47.90;;;;;;5044237;28;20039;-83
2022/07/29 02:47:53;;;;;;;1.00;0.90;;;22.00;48.00;;;;;;5056569;28;20024;-83
2022/07/29 02:50:31;;;;;;;0.88;0.80;;;22.00;48.10;;;;;;5084399;28;20036;-83
2022/07/29 02:53:02;;;;;;;1.30;0.90;;;22.00;48.10;;;;;;5071153;28;20111;-83
2022/07/29 02:55:35;;;;;;;1.10;1.00;;;22.00;48.10;;;;;;5070748;28;20021;-84
2022/07/29 02:58:13;;;;;;;1.00;0.88;;;21.90;48.20;;;;;;5073280;28;20034;-83
2022/07/29 03:00:40;;;;;;;0.93;0.93;;;21.90;48.30;;;;;;5068821;28;20134;-82
2022/07/29 03:03:12;;;;;;;1.20;0.95;;;21.90;48.30;;;;;;5084132;28;20063;-83
2022/07/29 03:05:39;;;;;;;1.08;1.00;;;21.80;48.40;;;;;;5067925;28;20039;-83
2022/07/29 03:08:07;;;;;;;1.40;1.05;;;21.80;48.40;;;;;;5089165;28;20032;-82
2022/07/29 03:10:33;;;;;;;1.55;0.85;;;21.80;48.50;;;;;;5072558;28;20078;-84
2022/07/29 03:13:00;;;;;;;1.02;0.80;;;21.80;48.60;;;;;;5084526;28;20021;-84
2022/07/29 03:15:27;;;;;;;0.90;0.90;;;21.80;48.60;;;;;;5085388;28;20095;-82
2022/07/29 03:17:55;;;;;;;1.88;0.90;;;21.80;48.70;;;;;;5089677;28;20046;-83
2022/07/29 03:20:21;;;;;;;1.27;1.10;;;21.70;48.70;;;;;;5086089;28;20047;-83
2022/07/29 03:22:47;;;;;;;1.65;1.00;;;21.70;48.70;;;;;;5054891;28;20032;-84
2022/07/29 03:25:15;;;;;;;1.05;0.85;;;21.70;48.80;;;;;;5060459;28;20043;-83
2022/07/29 03:27:42;;;;;;;1.05;0.88;;;21.70;48.80;;;;;;5071558;28;20035;-83
2022/07/29 03:30:09;;;;;;;1.05;0.95;;;21.70;48.90;;;;;;5053893;28;20081;-83
2022/07/29 03:32:35;;;;;;;1.42;1.10;;;21.70;48.90;;;;;;5071793;28;20028;-83
2022/07/29 03:35:01;;;;;;;1.75;0.90;;;21.70;49.00;;;;;;5087926;28;20031;-83
2022/07/29 03:37:27;;;;;;;1.73;1.00;;;21.60;49.00;;;;;;5055430;28;20055;-83
2022/07/29 03:39:56;;;;;;;1.48;1.05;;;21.60;49.00;;;;;;5089235;28;20085;-83
2022/07/29 03:42:25;;;;;;;1.25;1.05;;;21.60;49.10;;;;;;5086781;28;20040;-84
2022/07/29 03:44:52;;;;;;;2.55;1.23;;;21.60;49.20;;;;;;5091841;28;20030;-83
2022/07/29 03:47:22;;;;;;;1.42;0.90;;;21.50;49.20;;;;;;5076425;28;20039;-83
2022/07/29 03:49:51;;;;;;;1.30;1.17;;;21.50;49.30;;;;;;5091466;28;20020;-83
2022/07/29 03:52:18;;;;;;;1.00;0.95;;;21.50;49.30;;;;;;5069954;28;20027;-83
2022/07/29 03:54:44;;;;;;;1.42;1.05;;;21.50;49.40;;;;;;5074651;28;20036;-83
2022/07/29 03:57:11;;;;;;;1.90;1.25;;;21.50;49.40;;;;;;5072093;28;20085;-83
2022/07/29 03:59:38;;;;;;;1.30;1.10;;;21.50;49.50;;;;;;5094731;28;20036;-83
2022/07/29 04:02:06;;;;;;;1.02;0.98;;;21.40;49.50;;;;;;5065942;28;20040;-83
2022/07/29 04:04:35;;;;;;;0.90;0.90;;;21.40;49.60;;;;;;5080609;28;20040;-82
2022/07/29 04:07:02;;;;;;;1.02;0.93;;;21.40;49.70;;;;;;5081398;28;20115;-82
2022/07/29 04:09:28;;;;;;;0.90;0.90;;;21.40;49.70;;;;;;5085105;28;20025;-84
2022/07/29 04:11:53;;;;;;;1.58;0.95;;;21.30;49.70;;;;;;5073098;28;20097;-82
2022/07/29 04:14:20;;;;;;;1.13;0.90;;;21.30;49.70;;;;;;5073972;28;20032;-83
2022/07/29 04:16:46;;;;;;;1.00;0.90;;;21.30;49.80;;;;;;5071087;28;20492;-82
2022/07/29 04:19:12;;;;;;;1.05;0.95;;;21.30;49.90;;;;;;5074275;28;20124;-83
2022/07/29 04:21:41;;;;;;;1.40;1.20;;;21.30;50.00;;;;;;5069423;28;20131;-82
2022/07/29 04:24:08;;;;;;;1.65;1.15;;;21.20;50.00;;;;;;5087818;28;20077;-82
2022/07/29 04:26:34;;;;;;;1.17;1.08;;;21.30;50.20;;;;;;5073501;28;20404;-82
2022/07/29 04:29:00;;;;;;;1.23;0.90;;;21.20;50.10;;;;;;5059400;28;20026;-83
2022/07/29 04:31:26;;;;;;;1.17;1.08;;;21.20;50.20;;;;;;5073871;28;20039;-85
2022/07/29 04:33:51;;;;;;;1.02;1.00;;;21.10;50.30;;;;;;5057120;28;20020;-83
2022/07/29 04:36:17;;;;;;;1.10;1.00;;;21.10;50.30;;;;;;5075411;28;20060;-83
2022/07/29 04:38:43;;;;;;;1.10;1.00;;;21.10;51.00;;;;;;5075129;28;20063;-81
2022/07/29 04:41:09;;;;;;;1.98;1.20;;;21.10;50.40;;;;;;5073515;28;20035;-83
2022/07/29 04:43:35;;;;;;;1.52;1.10;;;21.10;50.50;;;;;;5039837;28;20518;-84
2022/07/29 04:46:03;;;;;;;1.30;1.20;;;21.00;50.50;;;;;;5075128;28;20032;-83
2022/07/29 04:48:28;;;;;;;1.20;1.10;;;21.10;50.60;;;;;;5071695;28;20480;-84
2022/07/29 04:50:55;;;;;;;1.40;1.00;;;21.00;50.60;;;;;;5073041;28;20047;-82
2022/07/29 04:53:21;;;;;;;1.27;0.90;;;21.00;50.60;;;;;;5041694;28;20078;-83
2022/07/29 04:55:46;;;;;;;1.10;1.00;;;21.00;50.70;;;;;;5072958;28;20028;-83
2022/07/29 04:58:12;;;;;;;2.03;1.20;;;20.90;50.60;;;;;;5041502;28;20093;-83
2022/07/29 05:00:39;;;;;;;1.10;1.00;;;21.00;50.70;;;;;;5072929;28;20055;-84
2022/07/29 05:03:05;;;;;;;1.30;1.20;;;20.90;50.80;;;;;;5071763;28;20437;-84
2022/07/29 05:05:30;;;;;;;1.25;1.15;;;20.90;50.80;;;;;;5074118;28;20032;-83
2022/07/29 05:07:56;;;;;;;1.40;1.20;;;20.90;50.80;;;;;;5071912;28;20039;-83
2022/07/29 05:10:22;;;;;;;2.10;0.85;;;20.90;50.80;;;;;;5053327;28;20135;-85
2022/07/29 05:12:48;;;;;;;1.92;1.35;;;20.80;50.80;;;;;;5020988;28;20029;-85
2022/07/29 05:15:14;;;;;;;1.38;1.20;;;20.90;50.90;;;;;;5067525;28;20071;-83
2022/07/29 05:17:40;;;;;;;1.67;1.20;;;20.80;50.90;;;;;;5071811;28;20435;-85
2022/07/29 05:20:07;;;;;;;1.17;1.08;;;20.80;51.00;;;;;;5071329;28;20024;-85
2022/07/29 05:22:32;;;;;;;1.67;1.20;;;20.80;51.00;;;;;;5069407;28;20119;-84
2022/07/29 05:24:58;;;;;;;1.30;1.08;;;20.80;51.00;;;;;;5057837;28;20418;-85
2022/07/29 05:27:24;;;;;;;1.77;1.10;;;20.80;51.00;;;;;;5047986;28;20032;-83
2022/07/29 05:29:49;;;;;;;1.20;1.00;;;20.80;51.10;;;;;;5070962;28;20038;-84
2022/07/29 05:32:15;;;;;;;1.00;0.98;;;20.70;51.10;;;;;;5056277;28;20029;-84
2022/07/29 05:34:41;;;;;;;1.00;1.00;;;20.70;51.20;;;;;;5060146;28;20039;-84
2022/07/29 05:37:07;;;;;;;1.02;1.02;;;20.70;51.20;;;;;;5090035;28;20031;-83
2022/07/29 05:39:33;;;;;;;1.38;1.17;;;20.70;51.30;;;;;;5056341;28;20032;-84
2022/07/29 05:41:58;;;;;;;1.85;1.23;;;20.70;51.30;;;;;;5074462;28;20036;-84
2022/07/29 05:44:24;;;;;;;1.10;1.00;;;20.70;51.30;;;;;;5052531;28;20040;-83
2022/07/29 05:46:50;;;;;;;1.80;1.10;;;20.70;51.40;;;;;;5045405;28;20101;-85
2022/07/29 05:49:16;;;;;;;1.30;1.13;;;20.70;51.40;;;;;;5088467;28;20028;-84
2022/07/29 05:51:41;;;;;;;1.05;1.00;;;20.60;51.40;;;;;;5074086;28;20035;-85
2022/07/29 05:54:07;;;;;;;1.15;1.08;;;20.60;51.40;;;;;;5070855;28;20028;-84
2022/07/29 05:56:33;;;;;;;1.15;1.05;;;20.60;51.50;;;;;;5064908;28;20385;-86
2022/07/29 05:58:59;;;;;;;1.35;1.15;;;20.60;51.50;;;;;;5056676;28;20031;-86
2022/07/29 06:01:24;;;;;;;1.20;1.10;;;20.60;51.50;;;;;;5054832;28;20032;-84
2022/07/29 06:03:50;;;;;;;1.88;1.30;;;20.60;51.60;;;;;;5073641;28;20055;-82
2022/07/29 06:06:16;;;;;;;1.63;1.13;;;20.60;51.60;;;;;;5064154;28;20052;-85
2022/07/29 06:08:42;;;;;;;1.65;1.20;;;20.60;51.60;;;;;;5034226;28;20032;-85
2022/07/29 06:11:08;;;;;;;1.67;1.15;;;20.60;51.70;;;;;;5032582;28;20025;-85
2022/07/29 06:13:34;;;;;;;1.38;1.02;;;20.50;51.70;;;;;;5031538;28;20107;-85
2022/07/29 06:16:00;;;;;;;2.15;1.20;;;20.50;51.80;;;;;;5053886;28;20056;-85
2022/07/29 06:18:31;;;;;;;1.17;1.08;;;20.50;51.80;;;;;;5034347;28;20368;-86
2022/07/29 06:20:58;;;;;;;1.67;1.08;;;20.50;51.90;;;;;;5006838;28;20025;-86
2022/07/29 06:23:23;;;;;;;1.67;1.20;;;20.50;51.80;;;;;;5016269;28;20044;-85
2022/07/29 06:25:49;;;;;;;1.08;1.00;;;20.50;51.80;;;;;;5041001;28;20453;-86
2022/07/29 06:28:15;;;;;;;1.30;1.20;;;20.50;51.80;;;;;;5003456;28;20033;-85
2022/07/29 06:30:41;;;;;;;1.00;1.00;;;20.50;51.90;;;;;;5018606;28;20029;-86
2022/07/29 06:33:06;;;;;;;2.45;1.60;;;20.50;51.90;;;;;;5034455;28;20461;-83
2022/07/29 06:35:36;;;;;;;1.10;1.00;;;20.50;51.90;;;;;;5061129;28;20123;-81
2022/07/29 06:38:03;;;;;;;1.83;1.27;;;20.50;52.00;;;;;;5020649;28;20033;-85
2022/07/29 06:43:13;;;;;;;1.40;1.10;;;20.50;52.00;;;;;;5035454;28;20040;-87
2022/07/29 06:45:40;;;;;;;1.05;0.98;;;20.50;52.00;;;;;;5002843;28;20029;-87
2022/07/29 06:48:06;;;;;;;1.60;1.30;;;20.50;52.00;;;;;;5030509;28;20025;-84
2022/07/29 06:50:32;;;;;;;1.45;1.05;;;20.50;52.10;;;;;;5010711;28;20427;-83
2022/07/29 06:52:58;;;;;;;1.98;1.27;;;20.50;52.10;;;;;;4997977;28;20036;-83
2022/07/29 06:55:24;;;;;;;1.75;1.25;;;20.40;52.10;;;;;;5013005;28;20043;-84
2022/07/29 06:57:50;;;;;;;1.10;1.00;;;20.50;52.10;;;;;;5029197;28;20385;-83
2022/07/29 07:00:17;;;;;;;1.20;1.08;;;20.50;52.20;;;;;;5031643;28;20043;-83
2022/07/29 07:02:42;;;;;;;1.42;1.30;;;20.50;52.20;;;;;;5014683;28;20108;-82
2022/07/29 07:05:08;;;;;;;1.20;1.10;;;20.50;52.20;;;;;;5031173;28;20026;-84
2022/07/29 07:07:34;;;;;;;1.38;1.13;;;20.50;52.20;;;;;;5032295;28;20045;-81
2022/07/29 07:10:00;;;;;;;1.35;1.10;;;20.50;52.20;;;;;;5026177;28;20029;-84
2022/07/29 07:12:26;;;;;;;1.55;1.17;;;20.50;52.20;;;;;;5020530;28;20469;-84
2022/07/29 07:14:51;;;;;;;3.47;1.27;;;20.50;52.20;;;;;;5050290;28;20040;-85
2022/07/29 07:17:17;;;;;;;1.13;1.00;;;20.50;52.20;;;;;;5014963;28;20113;-84
2022/07/29 07:19:43;;;;;;;3.20;1.30;;;20.60;52.30;;;;;;5018112;28;20036;-84
2022/07/29 07:22:08;;;;;;;1.70;1.15;;;20.60;52.30;;;;;;5017144;28;20124;-85
2022/07/29 07:24:34;;;;;;;1.58;1.20;;;20.60;52.30;;;;;;5034825;28;20058;-84
2022/07/29 07:27:00;;;;;;;1.13;1.00;;;20.60;52.30;;;;;;5017036;28;20031;-83
2022/07/29 07:29:25;;;;;;;1.17;1.02;;;20.60;52.30;;;;;;5034510;28;20029;-83
2022/07/29 07:31:51;;;;;;;1.02;1.00;;;20.70;52.40;;;;;;5008223;28;20040;-84
2022/07/29 07:34:17;;;;;;;1.30;1.20;;;20.70;52.40;;;;;;5019834;28;20038;-84
2022/07/29 07:36:42;;;;;;;1.17;1.08;;;20.70;52.40;;;;;;5032868;28;20090;-84
2022/07/29 07:39:08;;;;;;;1.58;1.10;;;20.70;52.40;;;;;;5031399;28;20503;-84
2022/07/29 07:41:34;;;;;;;1.05;0.93;;;20.70;52.40;;;;;;5025167;28;20048;-85
2022/07/29 07:44:00;;;;;;;1.13;1.00;;;20.80;52.40;;;;;;5000118;28;20040;-83
2022/07/29 07:46:26;;;;;;;1.17;1.08;;;20.70;52.40;;;;;;5001434;28;20021;-85
2022/07/29 07:48:52;;;;;;;1.20;1.10;;;20.80;52.50;;;;;;5023149;28;20370;-84
2022/07/29 07:51:18;;;;;;;1.13;1.02;;;20.80;52.50;;;;;;5016364;28;20025;-83
2022/07/29 07:53:44;;;;;;;1.40;1.27;;;20.80;52.50;;;;;;5030493;28;20120;-84
2022/07/29 07:56:10;;;;;;;1.85;1.20;;;20.80;52.60;;;;;;5050716;28;20017;-83
2022/07/29 07:58:36;;;;;;;1.10;1.00;;;20.80;52.60;;;;;;5013344;28;20905;-84
2022/07/29 08:01:02;;;;;;;1.35;1.15;;;20.90;52.50;;;;;;5034735;28;20076;-84
2022/07/29 08:03:27;;;;;;;1.42;1.10;;;20.80;52.40;;;;;;5003565;28;20041;-83
2022/07/29 08:05:54;;;;;;;1.10;1.00;;;20.90;52.50;;;;;;5051326;28;20120;-83
2022/07/29 08:08:20;;;;;;;1.15;0.98;;;20.90;52.40;;;;;;5073832;28;20132;-82
2022/07/29 08:10:52;;;;;;;1.13;0.98;;;20.90;52.50;;;;;;5037821;28;20063;-86
2022/07/29 08:13:20;;;;;;;1.10;0.98;;;20.90;52.50;;;;;;5044509;28;20098;-83
2022/07/29 08:15:46;;;;;;;1.55;1.10;;;20.90;52.50;;;;;;5070116;28;20031;-81
2022/07/29 08:18:13;;;;;;;1.17;1.10;;;21.00;52.50;;;;;;5065645;28;20397;-84
2022/07/29 08:20:39;;;;;;;1.40;1.20;;;21.00;52.50;;;;;;5056828;28;20705;-86
2022/07/29 08:23:08;;;;;;;0.95;0.95;;;21.00;52.40;;;;;;5036298;28;20032;-85
2022/07/29 08:25:37;;;;;;;1.60;1.10;;;21.00;52.50;;;;;;5058728;28;20116;-85
2022/07/29 08:28:03;;;;;;;1.52;1.10;;;21.00;52.60;;;;;;5066131;28;20024;-85
2022/07/29 08:30:29;;;;;;;1.85;1.20;;;21.10;52.60;;;;;;5037333;28;20633;-83
2022/07/29 08:32:55;;;;;;;1.38;1.05;;;21.10;52.60;;;;;;5036791;28;20040;-86
2022/07/29 08:35:22;;;;;;;1.00;0.90;;;21.10;52.60;;;;;;5053429;28;20054;-84
2022/07/29 08:37:48;;;;;;;1.02;0.90;;;21.10;52.60;;;;;;5068890;28;20024;-86
2022/07/29 08:40:14;;;;;;;0.95;0.93;;;21.10;52.60;;;;;;5035956;28;20072;-85
2022/07/29 08:42:40;;;;;;;1.30;1.10;;;21.10;52.60;;;;;;5064713;28;20029;-87
2022/07/29 08:45:07;;;;;;;1.27;0.90;;;21.20;52.60;;;;;;5038755;28;20376;-85
2022/07/29 08:47:35;;;;;;;1.27;1.00;;;21.20;52.60;;;;;;5055775;28;20032;-85
2022/07/29 08:50:01;;;;;;;1.77;1.25;;;21.20;52.60;;;;;;5056437;28;20029;-86
2022/07/29 08:52:31;;;;;;;1.02;1.00;;;21.20;52.50;;;;;;5038328;28;20075;-85
2022/07/29 08:54:58;;;;;;;1.10;1.00;;;21.20;52.50;;;;;;5049660;28;20024;-85
2022/07/29 08:57:25;;;;;;;1.80;1.17;;;21.30;52.60;;;;;;5039093;28;20033;-85
2022/07/29 08:59:53;;;;;;;0.90;0.90;;;21.30;52.50;;;;;;5047470;28;20040;-86
2022/07/29 09:02:21;;;;;;;1.88;1.27;;;21.30;52.50;;;;;;5052191;28;20039;-86
2022/07/29 09:04:47;;;;;;;1.00;0.90;;;21.30;52.50;;;;;;5048296;28;20499;-87
2022/07/29 09:07:17;;;;;;;1.13;1.00;;;21.30;52.40;;;;;;5080128;28;20044;-86
2022/07/29 09:09:43;;;;;;;1.48;0.98;;;21.30;52.50;;;;;;5076321;28;20464;-86
2022/07/29 09:12:11;;;;;;;1.42;1.17;;;21.40;52.40;;;;;;5071426;28;20017;-85
2022/07/29 09:14:40;;;;;;;1.20;1.10;;;21.40;53.10;;;;;;5071829;28;20087;-86
2022/07/29 09:17:07;;;;;;;1.52;1.15;;;21.40;52.50;;;;;;5064855;28;20360;-87
2022/07/29 09:19:36;;;;;;;1.90;1.10;;;21.40;52.40;;;;;;5072041;28;20033;-86
2022/07/29 09:22:04;;;;;;;1.13;1.00;;;21.40;52.40;;;;;;5072179;28;20017;-88
2022/07/29 09:24:38;;;;;;;1.35;1.17;;;21.40;52.40;;;;;;5053502;28;20027;-85
2022/07/29 09:27:09;;;;;;;0.90;0.90;;;21.40;52.40;;;;;;5068541;28;20495;-86
2022/07/29 09:29:37;;;;;;;1.58;1.20;;;21.40;52.40;;;;;;5070544;28;20034;-86
2022/07/29 09:32:07;;;;;;;1.13;1.02;;;21.50;52.40;;;;;;5054186;28;20027;-86
2022/07/29 09:34:33;;;;;;;1.67;1.10;;;21.50;52.50;;;;;;5069269;28;20104;-86
2022/07/29 09:36:59;;;;;;;1.02;0.98;;;21.50;52.40;;;;;;5032201;28;20123;-85
2022/07/29 09:39:33;;;;;;;0.90;0.90;;;21.50;52.50;;;;;;5066542;28;21351;-84
2022/07/29 09:42:03;;;;;;;1.67;1.10;;;21.50;52.50;;;;;;5084094;28;20044;-84
2022/07/29 09:44:47;;;;;;;2.17;1.08;;;21.60;52.50;;;;;;5059230;28;20047;-83
2022/07/29 09:47:14;;;;;;;0.90;0.90;;;21.60;52.60;;;;;;5029457;28;20127;-85
2022/07/29 09:50:00;;;;;;;2.55;1.15;;;21.60;52.50;;;;;;5073313;28;20111;-85
2022/07/29 09:52:28;;;;;;;1.13;1.00;;;21.60;52.80;;;;;;5065949;28;20120;-86
2022/07/29 09:55:07;;;;;;;1.33;1.00;;;21.60;52.50;;;;;;5068007;28;20020;-86
2022/07/29 09:57:33;;;;;;;1.42;1.00;;;21.60;52.50;;;;;;5051328;28;20368;-85
2022/07/29 10:00:03;;;;;;;1.45;1.10;;;21.70;52.50;;;;;;5036895;28;20045;-86
2022/07/29 10:02:39;;;;;;;1.23;1.13;;;21.70;52.60;;;;;;5062151;28;20044;-87
2022/07/29 10:05:16;;;;;;;1.33;1.17;;;21.70;52.50;;;;;;5064996;28;20020;-87
2022/07/29 10:07:49;;;;;;;1.10;1.00;;;21.70;52.50;;;;;;5058061;28;20045;-85
2022/07/29 10:10:29;;;;;;;1.83;1.30;;;21.70;52.50;;;;;;5042897;28;20409;-83
2022/07/29 10:13:02;;;;;;;1.10;1.05;;;21.70;52.60;;;;;;5040488;28;20112;-86
2022/07/29 10:15:31;;;;;;;1.42;1.33;;;21.80;52.50;;;;;;5018361;28;20092;-84
2022/07/29 10:17:59;;;;;;;1.55;1.30;;;21.80;52.50;;;;;;5056697;28;20088;-83
2022/07/29 10:20:26;;;;;;;2.45;1.30;;;21.80;52.50;;;;;;5052852;28;20044;-85
2022/07/29 10:22:53;;;;;;;1.20;1.10;;;21.90;52.40;;;;;;5051087;28;20037;-85
2022/07/29 10:25:20;;;;;;;1.95;1.33;;;21.90;52.40;;;;;;5050082;28;20141;-83
2022/07/29 10:27:47;;;;;;;1.58;1.20;;;22.00;52.50;;;;;;5047346;28;20031;-84
2022/07/29 10:30:15;;;;;;;1.17;1.08;;;22.00;52.40;;;;;;5042436;28;20039;-84
2022/07/29 10:32:41;;;;;;;2.13;1.30;;;22.10;52.40;;;;;;5056168;28;20032;-84
2022/07/29 10:35:18;;;;;;;1.45;1.10;;;22.20;52.30;;;;;;5038986;28;20428;-83
2022/07/29 10:38:07;;;;;;;1.30;1.20;;;22.20;52.30;;;;;;5047074;28;20037;-84
2022/07/29 10:43:40;;;;;;;1.80;1.13;;;22.40;52.20;;;;;;5057966;28;20074;-84
2022/07/29 10:46:06;;;;;;;1.55;1.30;;;22.50;52.00;;;;;;5049759;28;20027;-84
2022/07/29 10:48:32;;;;;;;1.90;1.27;;;22.50;52.00;;;;;;5062513;28;20036;-84
2022/07/29 10:51:03;;;;;;;1.85;1.35;;;22.60;52.00;;;;;;5048269;28;20446;-84
2022/07/29 10:53:51;;;;;;;2.33;1.40;;;22.60;51.90;;;;;;5070164;28;20028;-84
2022/07/29 10:56:29;;;;;;;1.55;1.20;;;22.70;51.90;;;;;;5042358;28;20036;-84
2022/07/29 10:59:20;;;;;;;2.05;1.30;;;22.80;51.90;;;;;;5058145;28;20112;-85
2022/07/29 11:01:49;;;;;;;1.20;1.00;;;22.80;51.80;;;;;;5060676;28;20025;-83
2022/07/29 11:04:16;;;;;;;1.35;1.10;;;22.90;51.70;;;;;;5044511;28;20063;-84
2022/07/29 11:07:02;;;;;;;1.25;1.05;;;22.90;51.60;;;;;;5044278;28;20072;-85
2022/07/29 11:09:30;;;;;;;1.35;1.20;;;23.00;51.70;;;;;;5069184;28;20090;-83
2022/07/29 11:11:56;;;;;;;1.23;1.02;;;23.00;51.50;;;;;;5040127;28;20396;-85
2022/07/29 11:15:01;;;;;;;1.77;1.20;;;23.10;51.50;;;;;;5039268;28;20630;-82
2022/07/29 11:17:27;;;;;;;1.77;1.10;;;23.20;51.60;;;;;;5042530;28;20048;-84
2022/07/29 11:20:31;;;;;;;1.45;1.20;;;23.20;51.30;;;;;;5052450;28;20086;-84
2022/07/29 11:22:57;;;;;;;1.10;1.00;;;23.20;51.40;;;;;;5066388;28;20108;-85
2022/07/29 11:25:23;;;;;;;2.05;1.13;;;23.30;51.30;;;;;;5042701;28;20063;-82
2022/07/29 11:27:51;;;;;;;1.08;1.00;;;23.30;51.30;;;;;;5057026;28;20024;-85
2022/07/29 11:30:17;;;;;;;1.63;1.13;;;23.40;51.30;;;;;;5050603;28;20020;-84
2022/07/29 11:32:44;;;;;;;1.80;1.30;;;23.50;51.30;;;;;;5067574;28;20427;-85
2022/07/29 11:35:24;;;;;;;1.20;1.02;;;23.50;51.30;;;;;;5072371;28;20031;-84
2022/07/29 11:38:22;;;;;;;1.20;0.98;;;23.60;51.30;;;;;;5069146;28;20489;-85
2022/07/29 11:41:22;;;;;;;1.65;1.20;;;23.60;51.30;;;;;;5068094;28;20063;-83
2022/07/29 11:43:57;;;;;;;1.20;0.98;;;23.70;51.30;;;;;;5033295;28;20147;-85
2022/07/29 11:46:43;;;;;;;1.20;1.10;;;23.70;51.20;;;;;;5057867;28;20063;-83
2022/07/29 11:49:09;;;;;;;1.13;1.05;;;23.70;51.20;;;;;;5075172;28;20027;-82
2022/07/29 11:51:37;;;;;;;2.00;1.00;;;23.80;51.20;;;;;;5053022;28;20031;-84
2022/07/29 11:54:04;;;;;;;1.00;1.00;;;23.80;51.30;;;;;;5070985;28;20032;-84
2022/07/29 11:56:32;;;;;;;0.90;0.90;;;23.80;51.30;;;;;;5039673;28;20029;-85
2022/07/29 11:59:09;;;;;;;1.73;1.17;;;23.90;51.40;;;;;;5052358;28;20067;-85
2022/07/29 12:01:35;;;;;;;1.10;0.98;;;24.00;51.60;;;;;;5042080;28;20037;-83
2022/07/29 12:04:05;;;;;;;1.27;1.10;;;24.00;51.50;;;;;;5035495;28;20032;-85
2022/07/29 12:06:31;;;;;;;2.40;1.02;;;24.10;51.70;;;;;;5041961;28;20783;-84
2022/07/29 12:08:57;;;;;;;1.75;1.10;;;24.10;51.70;;;;;;5082520;28;20086;-84
2022/07/29 12:11:22;;;;;;;1.15;1.05;;;24.10;51.70;;;;;;5064199;28;20032;-84
2022/07/29 12:13:50;;;;;;;1.25;1.10;;;24.20;51.70;;;;;;5074807;28;20030;-84
2022/07/29 12:16:16;;;;;;;1.15;1.05;;;24.20;51.60;;;;;;5075214;28;20067;-84
2022/07/29 12:18:41;;;;;;;1.17;1.08;;;24.30;51.60;;;;;;5088435;28;20521;-85
2022/07/29 12:21:08;;;;;;;1.10;1.00;;;24.40;51.60;;;;;;5074739;28;20046;-84
2022/07/29 12:23:34;;;;;;;1.83;1.10;;;24.40;51.60;;;;;;5058970;28;20586;-83
2022/07/29 12:26:00;;;;;;;0.98;0.95;;;24.40;52.20;;;;;;5069714;28;20417;-84
2022/07/29 12:28:26;;;;;;;1.05;0.95;;;24.40;51.50;;;;;;5058729;28;20457;-84
2022/07/29 12:30:51;;;;;;;1.65;0.90;;;24.50;51.60;;;;;;5061738;28;20039;-84
2022/07/29 12:33:19;;;;;;;0.93;0.90;;;24.60;51.70;;;;;;5057061;28;20082;-84
2022/07/29 12:35:48;;;;;;;1.58;1.10;;;24.60;51.80;;;;;;5074402;28;20423;-85
2022/07/29 12:38:14;;;;;;;1.70;1.00;;;24.60;51.70;;;;;;5088284;28;20691;-84
2022/07/29 12:40:40;;;;;;;1.15;1.02;;;24.60;51.70;;;;;;5073559;28;20027;-84
2022/07/29 12:43:18;;;;;;;1.77;1.20;;;24.70;51.70;;;;;;5056137;28;20025;-84
2022/07/29 12:45:46;;;;;;;1.45;1.30;;;24.80;51.80;;;;;;5087773;28;20028;-84
2022/07/29 12:48:13;;;;;;;1.35;1.05;;;24.80;51.70;;;;;;5069635;28;20060;-84
2022/07/29 12:51:01;;;;;;;1.13;0.90;;;24.80;51.70;;;;;;5063195;28;20106;-84
2022/07/29 12:53:27;;;;;;;1.33;1.00;;;24.80;51.80;;;;;;5079846;28;20111;-84
2022/07/29 12:55:54;;;;;;;1.00;0.95;;;24.90;51.60;;;;;;5072428;28;20059;-84
2022/07/29 12:58:35;;;;;;;1.08;1.00;;;24.90;51.70;;;;;;5074371;28;20020;-85
2022/07/29 13:01:06;;;;;;;0.90;0.90;;;24.90;51.60;;;;;;5088030;28;20024;-85